Terminal Aerodrome Forecast
Issued by NWS

Home | Current Version | Previous Version | Text Only | Print | Product List | Glossary On
Versions: 1 2 3 4 5 6 7 8 9 10 11 12 13
000
FTUS42 KTBW 201700
TAFPGD
TAF
KPGD 201726Z 2018/2118 11008KT P6SM SCT045
     FM202000 24006KT P6SM SCT050
     FM210100 VRB03KT P6SM FEW050 SCT250
     FM210900 VRB03KT P6SM SCT050 SCT100 BKN250=

USA.gov is the U.S. government's official web portal to all federal, state and local government web resources and services.